^^
Your Local Weather - Clay, NY Station Historical Data
Daily Summary for December 19, 2017 Units:  English    Metric   Both
« Previous Day
Next Day »
Daily Weekly Monthly Yearly Custom
  High: Low: Average:
Temperature: 48.9 °F 38.2 °F 42.6 °F
Dew Point: 37.4 °F 28.1 °F 35.4 °F
Humidity: 92% 60% 76%
Wind Speed: 8.0mph 0.0mph 3.9mph
Wind Gust: 17.0mph - -
Wind- - WSW
Pressure: 29.82 in 29.60 in -
Precipitation: 0.17 in    
Historical Graphs
 
 
Tabular Data for December 19, 2017
Time Temperature Dew Point Pressure Wind Wind Speed Wind Gust Humidity Rainfall Rate (Hourly) solar
00:04 39.0 °F 35.5 °F 29.82 in WSW 2.0 mph 3.0 mph 87% 0.00 in 0 W/m2
00:06 39.1 °F 35.6 °F 29.82 in WSW 2.0 mph 3.0 mph 87% 0.00 in 0 W/m2
00:12 39.1 °F 35.6 °F 29.82 in SW 1.0 mph 3.0 mph 87% 0.00 in 0 W/m2
00:18 39.2 °F 35.7 °F 29.82 in SW 3.0 mph 5.0 mph 87% 0.04 in 0 W/m2
00:24 39.0 °F 35.7 °F 29.82 in SW 2.0 mph 6.0 mph 88% 0.04 in 0 W/m2
00:30 38.8 °F 35.8 °F 29.82 in WSW 1.0 mph 1.0 mph 89% 0.04 in 0 W/m2
00:36 38.6 °F 35.6 °F 29.82 in WSW 1.0 mph 1.0 mph 89% 0.00 in 0 W/m2
00:42 38.4 °F 35.4 °F 29.82 in WSW 1.0 mph 1.0 mph 89% 0.00 in 0 W/m2
00:48 38.5 °F 35.8 °F 29.81 in SW 2.0 mph 2.0 mph 90% 0.00 in 0 W/m2
00:56 38.5 °F 35.8 °F 29.81 in SW 1.0 mph 2.0 mph 90% 0.00 in 0 W/m2
01:02 38.5 °F 35.8 °F 29.81 in SW 1.0 mph 1.0 mph 90% 0.00 in 0 W/m2
01:08 38.5 °F 35.8 °F 29.81 in SW 1.0 mph 2.0 mph 90% 0.00 in 0 W/m2
01:14 38.5 °F 35.8 °F 29.80 in SW 1.0 mph 3.0 mph 90% 0.00 in 0 W/m2
01:18 38.5 °F 35.8 °F 29.80 in SW 1.0 mph 3.0 mph 90% 0.00 in 0 W/m2
01:24 38.5 °F 35.8 °F 29.79 in SW 1.0 mph 4.0 mph 90% 0.00 in 0 W/m2
01:30 38.6 °F 35.9 °F 29.79 in SW 2.0 mph 2.0 mph 90% 0.00 in 0 W/m2
01:36 38.7 °F 36.0 °F 29.79 in SSW 2.0 mph 2.0 mph 90% 0.00 in 0 W/m2
01:42 38.7 °F 36.0 °F 29.79 in SSW 2.0 mph 3.0 mph 90% 0.00 in 0 W/m2
01:48 38.7 °F 36.0 °F 29.80 in SW 2.0 mph 3.0 mph 90% 0.00 in 0 W/m2
01:54 38.6 °F 35.9 °F 29.80 in South 2.0 mph 5.0 mph 90% 0.00 in 0 W/m2
02:00 38.7 °F 36.0 °F 29.80 in SW 2.0 mph 2.0 mph 90% 0.00 in 0 W/m2
02:06 38.7 °F 36.0 °F 29.79 in SSW 2.0 mph 2.0 mph 90% 0.00 in 0 W/m2
02:12 38.8 °F 36.1 °F 29.80 in SSW 2.0 mph 4.0 mph 90% 0.00 in 0 W/m2
02:18 38.8 °F 36.1 °F 29.79 in SSW 3.0 mph 4.0 mph 90% 0.10 in 0 W/m2
02:24 38.9 °F 36.5 °F 29.79 in SW 3.0 mph 3.0 mph 91% 0.07 in 0 W/m2
02:30 38.9 °F 36.5 °F 29.79 in SSW 3.0 mph 4.0 mph 91% 0.04 in 0 W/m2
02:36 39.0 °F 36.6 °F 29.79 in South 3.0 mph 4.0 mph 91% 0.00 in 0 W/m2
02:42 39.1 °F 36.7 °F 29.79 in SSE 3.0 mph 4.0 mph 91% 0.00 in 0 W/m2
02:48 39.0 °F 36.6 °F 29.78 in South 3.0 mph 4.0 mph 91% 0.00 in 0 W/m2
02:54 38.9 °F 36.5 °F 29.79 in South 2.0 mph 2.0 mph 91% 0.00 in 0 W/m2
03:00 38.8 °F 36.4 °F 29.79 in SW 1.0 mph 1.0 mph 91% 0.04 in 0 W/m2
03:06 38.8 °F 36.4 °F 29.78 in SSW 1.0 mph 3.0 mph 91% 0.04 in 0 W/m2
03:08 38.8 °F 36.4 °F 29.77 in SSW 1.0 mph 3.0 mph 91% 0.04 in 0 W/m2
03:14 38.7 °F 36.3 °F 29.77 in SSW 1.0 mph 1.0 mph 91% 0.04 in 0 W/m2
03:20 38.7 °F 36.3 °F 29.77 in SSW 1.0 mph 1.0 mph 91% 0.00 in 0 W/m2
03:24 38.5 °F 36.1 °F 29.77 in SSW 1.0 mph 1.0 mph 91% 0.00 in 0 W/m2
03:26 38.5 °F 36.1 °F 29.77 in SSW 1.0 mph 1.0 mph 91% 0.00 in 0 W/m2
03:32 38.5 °F 36.1 °F 29.77 in SSW 1.0 mph 1.0 mph 91% 0.00 in 0 W/m2
03:38 38.4 °F 36.3 °F 29.77 in SSW 1.0 mph 1.0 mph 92% 0.00 in 0 W/m2
03:44 38.4 °F 36.3 °F 29.77 in SSW 1.0 mph 2.0 mph 92% 0.00 in 0 W/m2
03:50 38.3 °F 36.2 °F 29.76 in SSW 1.0 mph 1.0 mph 92% 0.00 in 0 W/m2
03:56 38.2 °F 36.1 °F 29.76 in Calm   2.0 mph 92% 0.00 in 0 W/m2
04:02 38.2 °F 36.1 °F 29.75 in Calm   1.0 mph 92% 0.00 in 0 W/m2
04:08 38.3 °F 36.2 °F 29.76 in SSW 1.0 mph 1.0 mph 92% 0.00 in 0 W/m2
04:14 38.5 °F 36.4 °F 29.76 in SSW 1.0 mph 2.0 mph 92% 0.00 in 0 W/m2
04:20 38.6 °F 36.5 °F 29.76 in SSW 2.0 mph 2.0 mph 92% 0.00 in 0 W/m2
04:26 39.0 °F 36.9 °F 29.76 in SW 2.0 mph 2.0 mph 92% 0.00 in 0 W/m2
04:32 39.2 °F 37.1 °F 29.76 in SW 2.0 mph 2.0 mph 92% 0.00 in 0 W/m2
04:38 39.3 °F 37.2 °F 29.75 in South 2.0 mph 5.0 mph 92% 0.00 in 0 W/m2
04:44 39.4 °F 37.0 °F 29.75 in SSW 3.0 mph 3.0 mph 91% 0.00 in 0 W/m2
04:50 39.5 °F 37.1 °F 29.75 in South 3.0 mph 3.0 mph 91% 0.00 in 0 W/m2
04:54 39.5 °F 37.1 °F 29.75 in SW 3.0 mph 3.0 mph 91% 0.00 in 0 W/m2
05:00 39.6 °F 37.2 °F 29.75 in SW 3.0 mph 3.0 mph 91% 0.00 in 0 W/m2
05:02 39.6 °F 37.2 °F 29.75 in WSW 3.0 mph 3.0 mph 91% 0.00 in 0 W/m2
05:08 39.7 °F 37.3 °F 29.76 in SSW 3.0 mph 4.0 mph 91% 0.00 in 0 W/m2
05:14 39.7 °F 37.3 °F 29.76 in WSW 2.0 mph 5.0 mph 91% 0.00 in 0 W/m2
05:16 39.7 °F 37.3 °F 29.76 in SW 2.0 mph 5.0 mph 91% 0.00 in 0 W/m2
05:22 39.7 °F 37.0 °F 29.76 in West 2.0 mph 3.0 mph 90% 0.00 in 0 W/m2
05:30 39.8 °F 37.1 °F 29.76 in SW 3.0 mph 3.0 mph 90% 0.00 in 0 W/m2
05:36 39.9 °F 37.2 °F 29.75 in SSW 2.0 mph 4.0 mph 90% 0.00 in 0 W/m2
05:38 39.9 °F 37.2 °F 29.75 in SSW 2.0 mph 4.0 mph 90% 0.00 in 0 W/m2
05:44 40.0 °F 37.3 °F 29.76 in SSW 3.0 mph 5.0 mph 90% 0.00 in 0 W/m2
05:50 40.1 °F 37.4 °F 29.76 in SW 3.0 mph 3.0 mph 90% 0.00 in 0 W/m2
05:54 40.0 °F 37.3 °F 29.75 in SSW 2.0 mph 4.0 mph 90% 0.00 in 0 W/m2
06:00 40.2 °F 37.2 °F 29.76 in SW 3.0 mph 4.0 mph 89% 0.00 in 0 W/m2
06:08 40.4 °F 37.4 °F 29.76 in SSW 3.0 mph 4.0 mph 89% 0.00 in 0 W/m2
06:14 40.3 °F 37.3 °F 29.76 in SSW 2.0 mph 3.0 mph 89% 0.00 in 0 W/m2
06:18 40.3 °F 37.3 °F 29.76 in South 2.0 mph 3.0 mph 89% 0.00 in 0 W/m2
06:24 40.2 °F 37.2 °F 29.75 in South 2.0 mph 3.0 mph 89% 0.00 in 0 W/m2
06:28 40.2 °F 37.2 °F 29.75 in SW 2.0 mph 4.0 mph 89% 0.00 in 0 W/m2
06:34 40.2 °F 37.2 °F 29.74 in SSW 2.0 mph 3.0 mph 89% 0.00 in 0 W/m2
06:40 40.1 °F 37.1 °F 29.74 in SSW 2.0 mph 3.0 mph 89% 0.00 in 0 W/m2
06:44 40.1 °F 37.1 °F 29.74 in SSW 2.0 mph 3.0 mph 89% 0.00 in 0 W/m2
06:50 40.2 °F 37.2 °F 29.74 in SW 2.0 mph 2.0 mph 89% 0.00 in 0 W/m2
06:56 40.3 °F 37.3 °F 29.74 in SW 3.0 mph 4.0 mph 89% 0.00 in 0 W/m2
07:02 40.3 °F 37.0 °F 29.74 in SW 2.0 mph 3.0 mph 88% 0.00 in 0 W/m2
07:08 40.2 °F 36.9 °F 29.74 in South 2.0 mph 4.0 mph 88% 0.00 in 0 W/m2
07:14 40.1 °F 36.8 °F 29.74 in South 2.0 mph 2.0 mph 88% 0.00 in 0 W/m2
07:20 40.0 °F 36.7 °F 29.74 in South 1.0 mph 1.0 mph 88% 0.00 in 0 W/m2
07:26 40.1 °F 36.8 °F 29.74 in SW 1.0 mph 3.0 mph 88% 0.00 in 0 W/m2
07:32 40.2 °F 36.9 °F 29.72 in South 2.0 mph 6.0 mph 88% 0.00 in 0 W/m2
07:38 40.3 °F 37.0 °F 29.72 in SSW 2.0 mph 6.0 mph 88% 0.00 in 0 W/m2
07:44 40.4 °F 37.1 °F 29.72 in South 2.0 mph 4.0 mph 88% 0.00 in 0 W/m2
07:50 40.6 °F 37.0 °F 29.72 in SW 3.0 mph 5.0 mph 87% 0.00 in 0 W/m2
07:56 40.7 °F 37.1 °F 29.72 in South 3.0 mph 5.0 mph 87% 0.00 in 7 W/m2
08:02 41.1 °F 37.2 °F 29.71 in SW 4.0 mph 5.0 mph 86% 0.00 in 12 W/m2
08:08 41.2 °F 37.0 °F 29.71 in SW 4.0 mph 8.0 mph 85% 0.00 in 16 W/m2
08:14 41.4 °F 36.9 °F 29.71 in SSW 4.0 mph 5.0 mph 84% 0.00 in 12 W/m2
08:20 41.5 °F 37.0 °F 29.71 in SSW 3.0 mph 3.0 mph 84% 0.00 in 9 W/m2
08:24 41.5 °F 37.0 °F 29.71 in WSW 3.0 mph 4.0 mph 84% 0.00 in 19 W/m2
08:30 41.7 °F 36.9 °F 29.70 in SSW 4.0 mph 4.0 mph 83% 0.00 in 16 W/m2
08:36 41.7 °F 36.9 °F 29.70 in SSW 4.0 mph 4.0 mph 83% 0.00 in 14 W/m2
08:42 41.8 °F 36.7 °F 29.70 in SSW 4.0 mph 4.0 mph 82% 0.00 in 12 W/m2
08:48 41.9 °F 36.8 °F 29.70 in SW 3.0 mph 4.0 mph 82% 0.00 in 14 W/m2
08:54 42.1 °F 36.7 °F 29.70 in SW 3.0 mph 4.0 mph 81% 0.00 in 26 W/m2
08:56 42.1 °F 36.7 °F 29.70 in SW 3.0 mph 4.0 mph 81% 0.00 in 28 W/m2
09:02 42.2 °F 36.8 °F 29.71 in SW 3.0 mph 3.0 mph 81% 0.00 in 30 W/m2
09:08 42.4 °F 36.7 °F 29.71 in SW 3.0 mph 3.0 mph 80% 0.00 in 26 W/m2
09:14 42.4 °F 36.7 °F 29.72 in WSW 2.0 mph 6.0 mph 80% 0.00 in 44 W/m2
09:20 42.4 °F 36.7 °F 29.72 in SW 2.0 mph 6.0 mph 80% 0.00 in 49 W/m2
09:26 42.6 °F 36.9 °F 29.71 in SSW 3.0 mph 6.0 mph 80% 0.00 in 81 W/m2
09:32 43.0 °F 36.6 °F 29.71 in West 4.0 mph 5.0 mph 78% 0.00 in 81 W/m2
09:38 43.3 °F 36.6 °F 29.72 in South 4.0 mph 5.0 mph 77% 0.00 in 123 W/m2
09:44 43.8 °F 36.7 °F 29.71 in SW 5.0 mph 6.0 mph 76% 0.00 in 155 W/m2
09:50 44.2 °F 36.4 °F 29.71 in WSW 6.0 mph 6.0 mph 74% 0.00 in 134 W/m2
09:56 44.4 °F 36.3 °F 29.71 in WSW 6.0 mph 10.0 mph 73% 0.00 in 105 W/m2
10:02 44.4 °F 36.3 °F 29.72 in West 6.0 mph 6.0 mph 73% 0.00 in 120 W/m2
10:08 44.4 °F 36.3 °F 29.71 in WSW 5.0 mph 9.0 mph 73% 0.00 in 93 W/m2
10:14 44.5 °F 36.0 °F 29.71 in West 6.0 mph 8.0 mph 72% 0.00 in 230 W/m2
10:22 44.7 °F 36.2 °F 29.71 in WSW 5.0 mph 5.0 mph 72% 0.00 in 120 W/m2
10:28 44.7 °F 35.9 °F 29.71 in WSW 5.0 mph 12.0 mph 71% 0.00 in 105 W/m2
10:34 44.7 °F 35.9 °F 29.70 in West 6.0 mph 6.0 mph 71% 0.00 in 113 W/m2
10:40 44.6 °F 35.8 °F 29.70 in WSW 5.0 mph 7.0 mph 71% 0.00 in 130 W/m2
10:46 44.8 °F 36.0 °F 29.69 in SW 6.0 mph 12.0 mph 71% 0.00 in 174 W/m2
10:52 45.0 °F 35.8 °F 29.69 in SSW 6.0 mph 7.0 mph 70% 0.00 in 163 W/m2
10:58 45.1 °F 35.9 °F 29.68 in WSW 6.0 mph 7.0 mph 70% 0.00 in 167 W/m2
11:04 45.2 °F 36.0 °F 29.68 in SW 5.0 mph 12.0 mph 70% 0.00 in 186 W/m2
11:10 45.9 °F 35.9 °F 29.68 in West 5.0 mph 6.0 mph 68% 0.00 in 193 W/m2
11:16 46.1 °F 36.1 °F 29.67 in WNW 5.0 mph 10.0 mph 68% 0.00 in 186 W/m2
11:22 46.7 °F 36.3 °F 29.66 in West 6.0 mph 6.0 mph 67% 0.00 in 418 W/m2
11:28 47.0 °F 36.2 °F 29.66 in West 5.0 mph 11.0 mph 66% 0.00 in 454 W/m2
11:30 46.9 °F 36.1 °F 29.66 in West 5.0 mph 5.0 mph 66% 0.00 in 302 W/m2
11:36 47.1 °F 36.3 °F 29.66 in West 6.0 mph 7.0 mph 66% 0.00 in 450 W/m2
11:42 47.3 °F 36.1 °F 29.66 in WSW 7.0 mph 11.0 mph 65% 0.00 in 489 W/m2
11:48 47.3 °F 36.5 °F 29.66 in SW 6.0 mph 11.0 mph 66% 0.00 in 475 W/m2
11:54 47.5 °F 36.3 °F 29.65 in West 6.0 mph 9.0 mph 65% 0.00 in 554 W/m2
12:02 47.8 °F 36.2 °F 29.64 in NW 8.0 mph 8.0 mph 64% 0.00 in 230 W/m2
12:08 47.4 °F 35.8 °F 29.64 in WSW 6.0 mph 10.0 mph 64% 0.00 in 346 W/m2
12:14 47.7 °F 35.7 °F 29.64 in West 6.0 mph 6.0 mph 63% 0.00 in 432 W/m2
12:20 48.0 °F 36.0 °F 29.64 in West 6.0 mph 16.0 mph 63% 0.00 in 425 W/m2
12:26 47.9 °F 36.3 °F 29.64 in WSW 7.0 mph 16.0 mph 64% 0.00 in 415 W/m2
12:34 48.1 °F 36.1 °F 29.63 in NW 5.0 mph 6.0 mph 63% 0.00 in 265 W/m2
12:38 48.3 °F 35.9 °F 29.63 in West 6.0 mph 7.0 mph 62% 0.00 in 149 W/m2
12:44 47.8 °F 35.8 °F 29.63 in SW 6.0 mph 6.0 mph 63% 0.00 in 204 W/m2
12:50 47.6 °F 35.6 °F 29.62 in WSW 6.0 mph 6.0 mph 63% 0.00 in 207 W/m2
12:56 48.6 °F 36.6 °F 29.63 in West 6.0 mph 13.0 mph 63% 0.00 in 448 W/m2
13:02 48.8 °F 35.9 °F 29.62 in West 6.0 mph 7.0 mph 61% 0.00 in 399 W/m2
13:08 48.8 °F 35.9 °F 29.62 in West 6.0 mph 7.0 mph 61% 0.00 in 392 W/m2
13:14 48.7 °F 35.4 °F 29.62 in SW 7.0 mph 12.0 mph 60% 0.00 in 415 W/m2
13:16 48.7 °F 35.8 °F 29.62 in WSW 7.0 mph 12.0 mph 61% 0.00 in 494 W/m2
13:22 48.9 °F 36.0 °F 29.61 in West 7.0 mph 7.0 mph 61% 0.00 in 418 W/m2
13:28 48.7 °F 35.4 °F 29.61 in West 8.0 mph 9.0 mph 60% 0.00 in 185 W/m2
13:34 48.5 °F 35.2 °F 29.61 in West 7.0 mph 14.0 mph 60% 0.00 in 167 W/m2
13:40 48.6 °F 35.3 °F 29.61 in WNW 8.0 mph 8.0 mph 60% 0.00 in 424 W/m2
13:46 48.2 °F 35.4 °F 29.61 in SSW 6.0 mph 9.0 mph 61% 0.00 in 141 W/m2
13:48 48.0 °F 35.2 °F 29.61 in West 6.0 mph 9.0 mph 61% 0.00 in 141 W/m2
13:54 47.9 °F 35.1 °F 29.61 in SSW 6.0 mph 7.0 mph 61% 0.00 in 90 W/m2
14:00 47.6 °F 34.8 °F 29.61 in WNW 6.0 mph 6.0 mph 61% 0.00 in 74 W/m2
14:06 47.5 °F 35.1 °F 29.61 in NW 6.0 mph 6.0 mph 62% 0.00 in 148 W/m2
14:12 47.4 °F 35.0 °F 29.61 in SW 5.0 mph 10.0 mph 62% 0.00 in 70 W/m2
14:18 47.4 °F 35.0 °F 29.61 in West 6.0 mph 10.0 mph 62% 0.00 in 102 W/m2
14:20 47.5 °F 35.1 °F 29.60 in WSW 6.0 mph 6.0 mph 62% 0.00 in 109 W/m2
14:26 47.6 °F 35.2 °F 29.61 in West 7.0 mph 7.0 mph 62% 0.00 in 76 W/m2
14:32 47.6 °F 34.8 °F 29.61 in West 5.0 mph 6.0 mph 61% 0.00 in 40 W/m2
14:38 47.7 °F 34.9 °F 29.61 in West 7.0 mph 7.0 mph 61% 0.00 in 33 W/m2
14:44 47.6 °F 34.8 °F 29.61 in NNW 7.0 mph 8.0 mph 61% 0.00 in 19 W/m2
14:50 47.5 °F 35.1 °F 29.62 in West 6.0 mph 6.0 mph 62% 0.00 in 16 W/m2
14:56 47.5 °F 35.1 °F 29.61 in South 6.0 mph 12.0 mph 62% 0.00 in 21 W/m2
15:02 47.6 °F 34.8 °F 29.61 in WSW 6.0 mph 8.0 mph 61% 0.00 in 16 W/m2
15:08 47.5 °F 35.1 °F 29.62 in West 6.0 mph 9.0 mph 62% 0.00 in 11 W/m2
15:14 47.4 °F 35.4 °F 29.61 in West 5.0 mph 7.0 mph 63% 0.00 in 11 W/m2
15:22 47.3 °F 35.3 °F 29.61 in West 5.0 mph 5.0 mph 63% 0.00 in 7 W/m2
15:28 47.3 °F 35.3 °F 29.61 in WSW 4.0 mph 17.0 mph 63% 0.00 in 14 W/m2
15:34 47.2 °F 35.2 °F 29.61 in WNW 5.0 mph 6.0 mph 63% 0.00 in 11 W/m2
15:40 47.1 °F 35.5 °F 29.62 in WNW 5.0 mph 5.0 mph 64% 0.00 in 7 W/m2
15:46 47.0 °F 35.4 °F 29.62 in West 5.0 mph 5.0 mph 64% 0.00 in 7 W/m2
15:52 46.9 °F 35.4 °F 29.62 in WNW 5.0 mph 5.0 mph 64% 0.00 in 7 W/m2
15:58 46.8 °F 35.6 °F 29.62 in West 5.0 mph 6.0 mph 65% 0.00 in 5 W/m2
16:04 46.7 °F 35.6 °F 29.62 in West 5.0 mph 5.0 mph 65% 0.00 in 7 W/m2
16:10 46.5 °F 35.7 °F 29.63 in WSW 4.0 mph 6.0 mph 66% 0.00 in 0 W/m2
16:12 46.5 °F 35.7 °F 29.63 in WNW 4.0 mph 6.0 mph 66% 0.00 in 0 W/m2
16:18 46.5 °F 36.1 °F 29.63 in WNW 6.0 mph 6.0 mph 67% 0.00 in 0 W/m2
16:24 46.5 °F 36.1 °F 29.63 in WNW 6.0 mph 8.0 mph 67% 0.00 in 0 W/m2
16:30 46.2 °F 36.2 °F 29.63 in NW 5.0 mph 6.0 mph 68% 0.00 in 0 W/m2
16:36 46.1 °F 36.1 °F 29.64 in WSW 5.0 mph 10.0 mph 68% 0.00 in 0 W/m2
16:42 46.0 °F 36.4 °F 29.64 in WNW 6.0 mph 7.0 mph 69% 0.00 in 0 W/m2
16:48 45.8 °F 36.2 °F 29.64 in WNW 7.0 mph 10.0 mph 69% 0.00 in 0 W/m2
16:54 45.7 °F 36.1 °F 29.64 in West 8.0 mph 12.0 mph 69% 0.00 in 0 W/m2
17:00 45.4 °F 35.8 °F 29.64 in West 6.0 mph 6.0 mph 69% 0.00 in 0 W/m2
17:04 45.2 °F 35.6 °F 29.64 in WSW 5.0 mph 6.0 mph 69% 0.00 in 0 W/m2
17:10 45.1 °F 35.5 °F 29.64 in WNW 5.0 mph 6.0 mph 69% 0.00 in 0 W/m2
17:16 44.9 °F 35.3 °F 29.65 in West 5.0 mph 8.0 mph 69% 0.00 in 0 W/m2
17:22 44.9 °F 35.3 °F 29.65 in WSW 6.0 mph 7.0 mph 69% 0.00 in 0 W/m2
17:30 44.7 °F 35.1 °F 29.66 in NW 5.0 mph 6.0 mph 69% 0.00 in 0 W/m2
17:36 44.6 °F 35.4 °F 29.65 in West 5.0 mph 9.0 mph 70% 0.00 in 0 W/m2
17:42 44.5 °F 35.3 °F 29.66 in West 5.0 mph 5.0 mph 70% 0.00 in 0 W/m2
17:48 44.4 °F 35.2 °F 29.66 in WNW 4.0 mph 5.0 mph 70% 0.00 in 0 W/m2
17:52 44.3 °F 35.5 °F 29.66 in NW 4.0 mph 4.0 mph 71% 0.00 in 0 W/m2
18:00 44.2 °F 35.4 °F 29.67 in NW 4.0 mph 4.0 mph 71% 0.00 in 0 W/m2
18:06 44.2 °F 35.4 °F 29.67 in West 4.0 mph 6.0 mph 71% 0.00 in 0 W/m2
18:12 44.1 °F 35.3 °F 29.67 in WSW 4.0 mph 6.0 mph 71% 0.00 in 0 W/m2
18:18 44.0 °F 35.2 °F 29.67 in WSW 4.0 mph 8.0 mph 71% 0.00 in 0 W/m2
18:20 43.9 °F 35.1 °F 29.67 in West 4.0 mph 4.0 mph 71% 0.00 in 0 W/m2
18:28 43.8 °F 35.4 °F 29.67 in West 3.0 mph 6.0 mph 72% 0.00 in 0 W/m2
18:34 43.7 °F 35.3 °F 29.67 in WNW 4.0 mph 4.0 mph 72% 0.00 in 0 W/m2
18:36 43.7 °F 35.3 °F 29.67 in West 4.0 mph 4.0 mph 72% 0.00 in 0 W/m2
18:38 43.7 °F 35.3 °F 29.67 in West 3.0 mph 4.0 mph 72% 0.00 in 0 W/m2
18:44 43.7 °F 35.6 °F 29.68 in WSW 4.0 mph 7.0 mph 73% 0.00 in 0 W/m2
18:50 43.5 °F 35.4 °F 29.67 in WSW 3.0 mph 9.0 mph 73% 0.00 in 0 W/m2
18:56 43.5 °F 35.4 °F 29.67 in WNW 4.0 mph 9.0 mph 73% 0.00 in 0 W/m2
19:02 43.5 °F 35.4 °F 29.67 in WNW 5.0 mph 7.0 mph 73% 0.00 in 0 W/m2
19:08 43.3 °F 35.2 °F 29.67 in West 4.0 mph 7.0 mph 73% 0.00 in 0 W/m2
19:14 43.3 °F 35.2 °F 29.67 in West 4.0 mph 5.0 mph 73% 0.00 in 0 W/m2
19:20 43.2 °F 35.1 °F 29.67 in NNW 3.0 mph 7.0 mph 73% 0.00 in 0 W/m2
19:26 43.1 °F 35.0 °F 29.67 in West 4.0 mph 7.0 mph 73% 0.00 in 0 W/m2
19:32 43.0 °F 34.9 °F 29.67 in West 4.0 mph 5.0 mph 73% 0.00 in 0 W/m2
19:38 42.9 °F 34.8 °F 29.67 in SW 4.0 mph 7.0 mph 73% 0.00 in 0 W/m2
19:44 42.7 °F 34.6 °F 29.67 in WSW 4.0 mph 5.0 mph 73% 0.00 in 0 W/m2
19:50 42.4 °F 34.4 °F 29.67 in WSW 4.0 mph 4.0 mph 73% 0.00 in 0 W/m2
19:56 42.3 °F 34.3 °F 29.67 in West 4.0 mph 5.0 mph 73% 0.00 in 0 W/m2
20:02 42.1 °F 34.1 °F 29.67 in WSW 4.0 mph 4.0 mph 73% 0.00 in 0 W/m2
20:08 42.1 °F 34.1 °F 29.67 in West 5.0 mph 8.0 mph 73% 0.00 in 0 W/m2
20:14 41.9 °F 33.9 °F 29.67 in West 5.0 mph 5.0 mph 73% 0.00 in 0 W/m2
20:20 41.8 °F 33.8 °F 29.67 in West 4.0 mph 5.0 mph 73% 0.00 in 0 W/m2
20:26 41.8 °F 33.8 °F 29.67 in WSW 6.0 mph 8.0 mph 73% 0.00 in 0 W/m2
20:32 41.6 °F 33.6 °F 29.67 in West 5.0 mph 6.0 mph 73% 0.00 in 0 W/m2
20:38 41.5 °F 33.5 °F 29.67 in WNW 5.0 mph 6.0 mph 73% 0.00 in 0 W/m2
20:44 41.4 °F 33.4 °F 29.67 in WNW 4.0 mph 5.0 mph 73% 0.00 in 0 W/m2
20:50 41.4 °F 33.4 °F 29.67 in West 5.0 mph 5.0 mph 73% 0.00 in 0 W/m2
20:58 41.3 °F 33.3 °F 29.67 in West 4.0 mph 9.0 mph 73% 0.00 in 0 W/m2
21:04 41.3 °F 33.0 °F 29.67 in West 5.0 mph 7.0 mph 72% 0.00 in 0 W/m2
21:10 41.2 °F 32.9 °F 29.67 in West 4.0 mph 4.0 mph 72% 0.00 in 0 W/m2
21:12 41.2 °F 32.9 °F 29.67 in SW 5.0 mph 5.0 mph 72% 0.00 in 0 W/m2
21:18 41.2 °F 32.5 °F 29.67 in WNW 5.0 mph 9.0 mph 71% 0.00 in 0 W/m2
21:24 41.3 °F 32.2 °F 29.67 in WNW 6.0 mph 6.0 mph 70% 0.00 in 0 W/m2
21:30 41.2 °F 32.2 °F 29.67 in West 5.0 mph 5.0 mph 70% 0.00 in 0 W/m2
21:36 41.1 °F 32.1 °F 29.67 in West 5.0 mph 6.0 mph 70% 0.00 in 0 W/m2
21:42 40.9 °F 31.9 °F 29.67 in WNW 4.0 mph 6.0 mph 70% 0.00 in 0 W/m2
21:48 40.8 °F 31.8 °F 29.67 in WNW 4.0 mph 6.0 mph 70% 0.00 in 0 W/m2
21:54 40.8 °F 31.8 °F 29.67 in West 5.0 mph 7.0 mph 70% 0.00 in 0 W/m2
22:00 40.8 °F 31.8 °F 29.67 in WNW 4.0 mph 8.0 mph 70% 0.00 in 0 W/m2
22:06 40.7 °F 31.7 °F 29.67 in WSW 4.0 mph 8.0 mph 70% 0.00 in 0 W/m2
22:20 40.3 °F 31.3 °F 29.67 in West 3.0 mph 3.0 mph 70% 0.00 in 0 W/m2
22:26 39.9 °F 30.9 °F 29.67 in WSW 2.0 mph 3.0 mph 70% 0.00 in 0 W/m2
22:32 39.7 °F 31.1 °F 29.67 in WSW 2.0 mph 3.0 mph 71% 0.00 in 0 W/m2
22:38 39.5 °F 31.2 °F 29.67 in WSW 2.0 mph 4.0 mph 72% 0.00 in 0 W/m2
22:44 39.5 °F 31.2 °F 29.67 in WNW 2.0 mph 3.0 mph 72% 0.00 in 0 W/m2
22:50 39.4 °F 31.1 °F 29.67 in West 3.0 mph 5.0 mph 72% 0.00 in 0 W/m2
22:56 39.7 °F 31.1 °F 29.67 in West 4.0 mph 6.0 mph 71% 0.00 in 0 W/m2
23:02 39.9 °F 30.9 °F 29.67 in WNW 4.0 mph 6.0 mph 70% 0.00 in 0 W/m2
23:08 40.2 °F 30.5 °F 29.67 in WNW 5.0 mph 9.0 mph 68% 0.00 in 0 W/m2
23:14 40.3 °F 30.2 °F 29.67 in WNW 5.0 mph 6.0 mph 67% 0.00 in 0 W/m2
23:20 40.2 °F 29.7 °F 29.67 in WNW 5.0 mph 7.0 mph 66% 0.00 in 0 W/m2
23:26 40.0 °F 29.6 °F 29.67 in WNW 5.0 mph 7.0 mph 66% 0.00 in 0 W/m2
23:32 39.9 °F 29.1 °F 29.67 in WNW 5.0 mph 5.0 mph 65% 0.00 in 0 W/m2
23:38 39.9 °F 29.1 °F 29.67 in West 6.0 mph 8.0 mph 65% 0.00 in 0 W/m2
23:44 39.8 °F 28.6 °F 29.67 in WSW 6.0 mph 6.0 mph 64% 0.00 in 0 W/m2
23:46 39.8 °F 28.6 °F 29.68 in NNW 6.0 mph 6.0 mph 64% 0.00 in 0 W/m2
23:52 39.7 °F 28.1 °F 29.67 in WNW 6.0 mph 11.0 mph 63% 0.00 in 0 W/m2
23:58 39.7 °F 28.1 °F 29.68 in NW 5.0 mph 11.0 mph 63% 0.00 in 0 W/m2
Country Meadow, Clay, NY, USA
Compliments of Weather Underground - 2 mb